Tolar, TX

3:59 AM CST on February 06, 2016 (GMT -0600)
Granbury

Weather History for KGDJ - July, 2013

Change the Weather History Date:

Monday, July 15, 2013

  Actual Average (KSEP) Record (KSEP)
Temperature  
Mean Temperature 70 °F -  
Max Temperature 74 °F 93 °F 106 °F (1978)
Min Temperature 67 °F 69 °F 50 °F (1931)
Cooling Degree Days 5    
Growing Degree Days 20 (Base 50)    
Moisture  
Dew Point 67 °F    
Average Humidity 90    
Maximum Humidity 92    
Minimum Humidity 86    
Precipitation  
Precipitation 1.10 in - - ()
Sea Level Pressure  
Sea Level Pressure 30.04 in    
Wind  
Wind Speed 3 mph (ESE)    
Max Wind Speed 10 mph    
Max Gust Speed -    
Visibility 6 miles    
Events Rain    
Averages and records for this station are not official NWS values.
T = Trace of Precipitation, MM = Missing Value Source: NWS Daily Summary

Daily Weather History Graph

Daily Weather History Graph

Search for Another Location

Airport or City:

Trip Planner

Search our weather history database for the weather conditions in past years. The results will help you decide how hot, cold, wet, or windy it might be!

Date:

Astronomy

Jul. 15, 2013 Rise Set
Actual Time 6:35 AM CDT 8:39 PM CDT
Civil Twilight 6:07 AM CDT 9:07 PM CDT
Nautical Twilight 5:33 AM CDT 9:40 PM CDT
Astronomical Twilight 4:57 AM CDT 10:16 PM CDT
Moon 1:27 PM CDT (7/15) 12:18 AM CDT (7/15)
Length of Visible Light 14h 59m
Length of Day
14h 04m
Waxing Crescent, 45% of the Moon is Illuminated
Jul 15
Waxing Crescent
Jul 15
First Quarter
Jul 22
Full
Jul 29
Last Quarter
Aug 6
New

Hourly Weather History & Observations

Time (CDT) Temp. Dew Point Humidity Pressure Visibility Wind Dir Wind Speed Gust Speed Precip Events Conditions
12:15 AM 68.5 °F 65.7 °F 90% 30.02 in 4.0 mi Calm Calm - 0.04 in Rain Rain
12:35 AM 68.9 °F 66.2 °F 91% 30.01 in 7.0 mi Calm Calm - 0.06 in Rain Rain
12:55 AM 68.9 °F 66.2 °F 91% 30.01 in 5.0 mi Calm Calm - 0.08 in Rain Heavy Rain
1:15 AM 68.9 °F 66.2 °F 91% 30.01 in 4.0 mi Calm Calm - 0.05 in Rain Heavy Rain
1:35 AM 68.4 °F 65.7 °F 91% 30.02 in 4.0 mi Calm Calm - 0.13 in Rain Rain
1:55 AM 68.5 °F 66.0 °F 92% 30.00 in 4.0 mi NNW 3.5 mph - 0.18 in Rain Rain
2:15 AM 68.2 °F 65.7 °F 92% 29.99 in 5.0 mi Calm Calm - 0.02 in Rain Rain
2:35 AM 68.4 °F 65.8 °F 92% 30.00 in 5.0 mi North 3.5 mph - 0.03 in   Light Drizzle
2:55 AM 68.4 °F 66.0 °F 92% 30.01 in 5.0 mi Calm Calm - 0.03 in Rain Rain
3:15 AM 68.9 °F 66.2 °F 91% 30.01 in 5.0 mi Calm Calm - 0.01 in Rain Light Rain
3:35 AM 68.5 °F 66.2 °F 92% 30.01 in 3.0 mi Calm Calm - 0.05 in Rain Rain
3:55 AM 68.9 °F 66.2 °F 91% 30.01 in 5.0 mi Calm Calm - 0.08 in Rain Rain
4:15 AM 68.7 °F 66.2 °F 92% 30.01 in 7.0 mi SE 3.5 mph - N/A Rain Rain
4:35 AM 68.5 °F 66.0 °F 92% 30.01 in 7.0 mi SSE 6.9 mph - 0.01 in   Drizzle
4:55 AM 68.2 °F 65.7 °F 92% 30.01 in 7.0 mi SSW 5.8 mph - 0.03 in Rain Rain
5:15 AM 68.0 °F 65.5 °F 92% 30.01 in 7.0 mi South 4.6 mph - 0.04 in Rain Rain
5:35 AM 68.0 °F 65.3 °F 91% 30.01 in 7.0 mi SSE 4.6 mph - 0.08 in Rain Rain
5:55 AM 67.6 °F 65.1 °F 92% 30.01 in 7.0 mi Calm Calm - 0.12 in Rain Rain
6:15 AM 68.0 °F 65.3 °F 91% 30.01 in 5.0 mi Calm Calm - 0.03 in Rain Rain
6:35 AM 68.0 °F 65.3 °F 91% 30.01 in 7.0 mi SE 3.5 mph - 0.07 in Rain Rain
6:55 AM 68.2 °F 65.5 °F 91% 30.01 in 10.0 mi SE 4.6 mph - 0.08 in   Drizzle
7:15 AM 68.4 °F 65.7 °F 91% 30.01 in 10.0 mi ESE 4.6 mph - N/A   Drizzle
7:35 AM 68.5 °F 65.8 °F 91% 30.02 in 10.0 mi Calm Calm - N/A   Drizzle
7:55 AM 68.9 °F 66.0 °F 90% 30.03 in 10.0 mi Calm Calm - 0.01 in   Drizzle
8:15 AM 69.1 °F 66.2 °F 91% 30.04 in 10.0 mi Calm Calm - N/A Rain Rain
8:35 AM 69.3 °F 66.2 °F 90% 30.04 in 10.0 mi Calm Calm - 0.01 in Rain Rain
8:55 AM 69.8 °F 66.0 °F 88% 30.04 in 10.0 mi Calm Calm - 0.01 in   Overcast
9:15 AM 70.2 °F 66.2 °F 87% 30.04 in 10.0 mi East 3.5 mph - N/A   Overcast
9:35 AM 70.7 °F 66.4 °F 86% 30.04 in 10.0 mi ESE 6.9 mph - N/A   Overcast
9:55 AM 70.3 °F 66.4 °F 87% 30.04 in 7.0 mi ESE 6.9 mph - N/A   Drizzle
10:15 AM 70.3 °F 66.6 °F 88% 30.04 in 7.0 mi ESE 9.2 mph - N/A   Light Drizzle
10:35 AM 70.3 °F 66.6 °F 88% 30.05 in 10.0 mi ESE 4.6 mph - N/A Rain Rain
10:55 AM 70.7 °F 66.9 °F 88% 30.05 in 4.0 mi East 5.8 mph - 0.02 in Rain Rain
11:15 AM 70.7 °F 67.1 °F 88% 30.06 in 5.0 mi East 5.8 mph - N/A   Drizzle
11:35 AM 70.0 °F 67.1 °F 91% 30.06 in 2.5 mi ESE 5.8 mph - 0.08 in Rain Rain
11:55 AM 70.2 °F 67.5 °F 91% 30.06 in 4.0 mi East 5.8 mph - 0.14 in Rain Heavy Rain
12:15 PM 70.0 °F 67.3 °F 91% 30.06 in 5.0 mi East 5.8 mph - 0.01 in   Drizzle
12:35 PM 70.2 °F 67.3 °F 91% 30.06 in 5.0 mi ESE 10.4 mph - 0.01 in Rain Rain
12:55 PM 69.8 °F 66.6 °F 89% 30.07 in 7.0 mi ESE 9.2 mph - 0.03 in Rain Rain
1:15 PM 69.8 °F 66.6 °F 89% 30.07 in 10.0 mi ESE 6.9 mph - N/A   Drizzle
1:35 PM 69.8 °F 66.2 °F 88% 30.07 in 10.0 mi ESE 10.4 mph - 0.01 in Rain Light Rain
1:55 PM 69.8 °F 66.4 °F 89% 30.06 in 7.0 mi ESE 5.8 mph - 0.04 in Rain Light Rain
2:15 PM 69.6 °F 66.4 °F 89% 30.06 in 10.0 mi East 5.8 mph - N/A Rain Rain
2:35 PM 69.8 °F 66.9 °F 91% 30.07 in 10.0 mi East 5.8 mph - 0.01 in Rain Light Rain
2:55 PM 70.0 °F 67.1 °F 91% 30.06 in 7.0 mi East 6.9 mph - 0.04 in Rain Rain
3:15 PM 70.2 °F 67.3 °F 91% 30.06 in 7.0 mi East 8.1 mph - 0.01 in Rain Rain
3:35 PM 70.2 °F 67.3 °F 91% 30.06 in 5.0 mi East 5.8 mph - 0.06 in Rain Rain
3:55 PM 70.5 °F 67.6 °F 91% 30.05 in 7.0 mi East 4.6 mph - 0.08 in Rain Rain
4:15 PM 70.9 °F 68.2 °F 91% 30.06 in 7.0 mi East 6.9 mph - 0.02 in Rain Light Rain
4:35 PM 71.6 °F 68.9 °F 91% 30.05 in 7.0 mi East 5.8 mph - 0.03 in Rain Rain
4:55 PM 72.0 °F 69.3 °F 91% 30.05 in 7.0 mi ESE 8.1 mph - 0.04 in Rain Light Rain
5:15 PM 72.5 °F 69.8 °F 91% 30.05 in 7.0 mi East 6.9 mph - N/A Rain Light Rain
5:35 PM 72.7 °F 69.8 °F 91% 30.04 in 7.0 mi East 4.6 mph - 0.01 in Rain Light Rain
5:55 PM 72.9 °F 70.0 °F 91% 30.04 in 5.0 mi ENE 5.8 mph - 0.01 in   Light Drizzle
6:15 PM 73.2 °F 70.2 °F 90% 30.03 in 5.0 mi East 5.8 mph - 0.01 in Rain Rain
6:35 PM 73.0 °F 69.8 °F 90% 30.03 in 7.0 mi East 6.9 mph - 0.04 in Rain Rain
6:55 PM 73.0 °F 69.8 °F 90% 30.04 in 7.0 mi East 6.9 mph - 0.07 in Rain Light Rain
7:15 PM 73.4 °F 70.0 °F 89% 30.04 in 7.0 mi East 5.8 mph - N/A   Light Drizzle
7:35 PM 73.4 °F 70.2 °F 90% 30.04 in 5.0 mi ENE 4.6 mph - N/A Rain Light Rain
7:55 PM 73.4 °F 70.7 °F 91% 30.05 in 4.0 mi ENE 4.6 mph - 0.01 in Rain Light Rain
10:15 PM 73.4 °F 70.7 °F 91% 30.08 in 4.0 mi East 6.9 mph - N/A   Overcast
10:35 PM 73.6 °F 70.7 °F 91% 30.08 in 4.0 mi East 8.1 mph - N/A   Overcast
10:55 PM 73.6 °F 70.7 °F 91% 30.08 in 4.0 mi East 8.1 mph - N/A   Overcast
11:15 PM 73.8 °F 70.9 °F 91% 30.09 in 4.0 mi East 8.1 mph - N/A   Overcast
11:35 PM 73.8 °F 70.9 °F 91% 30.10 in 4.0 mi ESE 6.9 mph - N/A   Overcast
11:55 PM 74.1 °F 71.2 °F 91% 30.10 in 4.0 mi East 6.9 mph - N/A   Overcast